»·PEaware :: UAL1399 KMFR-KPDX

UAL1399 :: KMFR-KPDX

FLIGHT INFORMATION

Flight Status: Arrived
Operator:
United Airlines
More flights by this operator :: More flights under this callsign
Pilot: David C. (16084)
Aircraft: AIRBUS A320
(A320)
More flights by this aircraft type
Origin: KMFR Rogue Valley Intl-Medford
United States
Destination: KPDX Portland Intl
United States
More flights between these airports :: More routes between these airports
Route: JKSN1 OED MOURN MOXEE TMBRS2
File this flight plan on PilotEdge
Remarks:
Altitude:
(Current/Filed)
27,000ft
Speed:
(Current/Filed)
487kts
Departed: 30-Jun-20 05:47 PM
Arrived: 30-Jun-20 06:27 PM
Distance/Time
Traveled:
193nm/0:40
Distance/Time
To Go:
Arrived

Flight Plot

Page will automatically refresh every two minutes.


Map Options




Map Legend


Flown Route
Filed Route
Departure Airport
Arrival Airport
Navaid (VOR, NDB)
Fix

Horizontal Profiles

Position Reports

Time Latitude Longitude Heading Altitude Ground
Speed
30-Jun-20 16:49 42.369107 -122.873633 248 1324ft 0kts
30-Jun-20 16:50 42.369107 -122.873633 248 1324ft 0kts
30-Jun-20 16:51 42.369107 -122.873633 248 1324ft 0kts
30-Jun-20 16:52 42.369107 -122.873633 248 1324ft 0kts
30-Jun-20 16:53 42.369107 -122.873633 248 1324ft 0kts
30-Jun-20 16:54 42.369107 -122.873633 248 1324ft 0kts
30-Jun-20 16:55 42.369107 -122.873633 248 1324ft 0kts
30-Jun-20 16:56 42.369107 -122.873633 248 1324ft 0kts
30-Jun-20 16:57 42.369107 -122.873633 248 1324ft 0kts
30-Jun-20 16:58 42.369107 -122.873633 248 1324ft 0kts
30-Jun-20 16:59 42.369107 -122.873633 248 1324ft 0kts
30-Jun-20 17:00 42.369107 -122.873633 248 1324ft 0kts
30-Jun-20 17:01 42.369107 -122.873633 248 1324ft 0kts
30-Jun-20 17:02 42.369107 -122.873633 248 1324ft 0kts
30-Jun-20 17:03 42.369107 -122.873633 248 1324ft 0kts
30-Jun-20 17:09 42.369107 -122.873633 248 1324ft 0kts
30-Jun-20 17:10 42.369107 -122.873633 248 1324ft 0kts
30-Jun-20 17:11 42.369107 -122.873633 248 1324ft 0kts
30-Jun-20 17:12 42.369107 -122.873633 248 1324ft 0kts
30-Jun-20 17:13 42.369107 -122.873633 248 1324ft 0kts
30-Jun-20 17:14 42.369107 -122.873633 248 1324ft 0kts
30-Jun-20 17:15 42.369107 -122.873633 248 1324ft 0kts
30-Jun-20 17:16 42.369107 -122.873633 248 1324ft 0kts
30-Jun-20 17:17 42.369107 -122.873633 248 1324ft 0kts
30-Jun-20 17:18 42.369107 -122.873633 248 1324ft 0kts
30-Jun-20 17:19 42.369107 -122.873633 248 1324ft 0kts
30-Jun-20 17:20 42.369107 -122.873633 248 1324ft 0kts
30-Jun-20 17:21 42.369107 -122.873633 248 1324ft 0kts
30-Jun-20 17:22 42.369107 -122.873633 248 1324ft 0kts
30-Jun-20 17:23 42.369107 -122.873633 248 1324ft 0kts
30-Jun-20 17:24 42.369107 -122.873633 248 1324ft 0kts
30-Jun-20 17:25 42.369107 -122.873633 248 1324ft 0kts
30-Jun-20 17:26 42.369107 -122.873633 248 1324ft 0kts
30-Jun-20 17:27 42.369107 -122.873633 248 1324ft 0kts
30-Jun-20 17:28 42.369107 -122.873633 248 1324ft 0kts
30-Jun-20 17:29 42.369107 -122.873633 248 1324ft 0kts
30-Jun-20 17:30 42.369107 -122.873633 248 1324ft 0kts
30-Jun-20 17:31 42.369107 -122.873633 248 1324ft 0kts
30-Jun-20 17:32 42.369107 -122.873633 248 1324ft 0kts
30-Jun-20 17:33 42.369107 -122.873633 248 1324ft 0kts
30-Jun-20 17:34 42.369107 -122.873633 248 1324ft 0kts
30-Jun-20 17:35 42.369107 -122.873633 248 1324ft 0kts
30-Jun-20 17:36 42.369112 -122.873615 249 1324ft 1kts
30-Jun-20 17:37 42.369077 -122.872858 304 1326ft 2kts
30-Jun-20 17:38 42.368827 -122.872565 333 1327ft 0kts
30-Jun-20 17:39 42.368827 -122.872565 333 1327ft 0kts
30-Jun-20 17:41 42.368871 -122.872595 333 1327ft 2kts
30-Jun-20 17:42 42.368718 -122.872701 120 1327ft 0kts
30-Jun-20 17:43 42.367254 -122.870833 162 1332ft 10kts
30-Jun-20 17:44 42.365217 -122.869780 156 1337ft 7kts
30-Jun-20 17:45 42.363601 -122.868766 116 1342ft 0kts
30-Jun-20 17:46 42.364284 -122.867674 339 1343ft 6kts
30-Jun-20 17:47 42.398372 -122.884445 339 2507ft 188kts
30-Jun-20 17:48 42.450925 -122.908304 342 4972ft 244kts
30-Jun-20 17:49 42.532361 -122.926955 354 5821ft 307kts
30-Jun-20 17:50 42.614461 -122.938737 351 9320ft 290kts
30-Jun-20 17:51 42.699227 -122.953601 351 11418ft 344kts
30-Jun-20 17:52 42.797397 -122.971567 350 14047ft 363kts
30-Jun-20 17:53 42.898205 -122.990343 349 16651ft 370kts
30-Jun-20 17:54 43.000724 -123.005376 0 19204ft 376kts
30-Jun-20 17:55 43.103707 -122.983545 3 21244ft 384kts
30-Jun-20 17:56 43.209775 -122.960572 2 23014ft 393kts
30-Jun-20 17:57 43.318461 -122.936926 2 24627ft 401kts
30-Jun-20 17:58 43.429665 -122.912633 2 26088ft 409kts
30-Jun-20 17:58 43.524267 -122.891913 1 27011ft 420kts
30-Jun-20 18:00 43.663614 -122.861211 2 27133ft 444kts
30-Jun-20 18:01 43.785610 -122.834261 2 27137ft 443kts
30-Jun-20 18:01 43.886834 -122.811814 2 27135ft 443kts
30-Jun-20 18:02 44.008527 -122.784722 2 27140ft 443kts
30-Jun-20 18:03 44.123635 -122.758982 2 26954ft 441kts
30-Jun-20 18:04 44.246801 -122.743619 358 23588ft 438kts
30-Jun-20 18:05 44.365833 -122.731897 359 20993ft 421kts
30-Jun-20 18:06 44.476697 -122.720936 358 19760ft 375kts
30-Jun-20 18:07 44.573646 -122.711328 358 19026ft 327kts
30-Jun-20 18:08 44.662103 -122.702473 358 17449ft 313kts
30-Jun-20 18:09 44.747332 -122.693884 359 15774ft 304kts
30-Jun-20 18:10 44.830591 -122.685515 359 14139ft 297kts
30-Jun-20 18:11 44.911867 -122.677335 0 12561ft 289kts
30-Jun-20 18:12 44.988750 -122.669567 0 11659ft 266kts
30-Jun-20 18:13 45.061696 -122.662152 359 10349ft 260kts
30-Jun-20 18:14 45.132248 -122.654957 358 9076ft 258kts
30-Jun-20 18:15 45.203318 -122.647704 359 7809ft 256kts
30-Jun-20 18:16 45.270658 -122.624056 27 6554ft 256kts
30-Jun-20 18:17 45.327759 -122.572440 27 5348ft 227kts
30-Jun-20 18:18 45.374889 -122.530004 25 5081ft 184kts
30-Jun-20 18:19 45.418050 -122.488386 30 4494ft 201kts
30-Jun-20 18:20 45.460782 -122.444055 30 3563ft 184kts
30-Jun-20 18:21 45.503757 -122.414873 352 2265ft 168kts
30-Jun-20 18:22 45.535690 -122.443378 300 1974ft 132kts
30-Jun-20 18:23 45.552486 -122.486972 300 1327ft 127kts
30-Jun-20 18:24 45.569064 -122.529581 300 668ft 126kts
30-Jun-20 18:25 45.584917 -122.570357 299 64ft 125kts
30-Jun-20 18:26 45.592072 -122.590818 270 31ft 12kts
30-Jun-20 18:27 45.591265 -122.591883 132 31ft 14kts
30-Jun-20 18:28 45.589958 -122.590422 223 31ft 7kts
30-Jun-20 18:29 45.589852 -122.590571 224 31ft 0kts

Navigation Log

Ident Type
Flight plan parsing failed, navigation log unavailable